Metar z połowy godziny Komunikat METAR ze strony awiacja.imgw.pl Metar G30 EPIR METAR EPIR 221430Z 21014KT 9999 SCT043 BKN070 18/04 Q1015 RMK 181 039 5/3=